Latest Weather Observations for Point Perpendicular

IDN60801

Issued at 3:35 pm EST Wednesday 1 October 2014 (issued every 30 minutes, with the page automatically refreshed every 10 minutes)

About weather observations | Map of weather stations | Latest weather observations for NSW | Other Formats
Station Details ID: 068151 Name: POINT PERPENDICULAR AWS Lat: -35.09 Lon: 150.80 Height: 85.0 m
Data from the previous 72 hours. | See also: Recent months at Point Perpendicular
Date/Time
EST
Temp
°C
App
Temp
°C
Dew
Point
Rel
Hum
%
Delta-T
°C
Wind Press
QNH
hPa
Press
MSL
hPa
Rain
since 9 am
mm
Dir
 
Spd
km/h
Gust
km/h
Spd
kts
Gust
kts
01/03:30pm 15.7 9.0 3.5 44 5.6 S 28 43 15 23 1018.3 1018.2 0.0
01/03:00pm 15.7 9.0 3.8 45 5.5 S 28 43 15 23 1018.0 1017.9 0.0
01/02:30pm 15.4 8.4 1.9 40 6.0 S 28 43 15 23 1018.0 1017.9 0.0
01/02:00pm 15.8 8.8 2.2 40 6.1 S 28 41 15 22 1018.0 1017.9 0.0
01/01:30pm 15.8 9.4 3.3 43 5.7 S 26 41 14 22 1018.1 1018.0 0.0
01/01:00pm 15.8 9.6 1.9 39 6.2 S 24 41 13 22 1018.2 1018.1 0.0
01/12:30pm 15.8 9.1 1.2 37 6.4 S 26 39 14 21 1018.4 1018.3 0.0
01/12:00pm 15.4 8.1 0.0 35 6.5 S 28 39 15 21 1018.4 1018.3 0.0
01/11:30am 15.3 9.1 -0.4 34 6.6 S 22 33 12 18 1018.6 1018.5 0.0
01/11:00am 15.1 8.9 -0.6 34 6.6 S 22 33 12 18 1018.3 1018.2 0.0
01/10:30am 15.1 8.8 -1.0 33 6.7 S 22 33 12 18 1018.2 1018.1 0.0
01/10:00am 14.8 8.3 0.3 37 6.2 S 24 32 13 17 1018.2 1018.1 0.0
01/09:30am 14.5 7.9 -0.4 36 6.2 SW 24 39 13 21 1017.8 1017.7 0.0
01/09:00am 14.2 7.2 -3.1 30 6.8 SW 24 43 13 23 1017.6 1017.5 0.0
01/08:30am 14.0 6.8 -2.4 32 6.5 SW 26 43 14 23 1017.2 1017.1 0.0
01/08:00am 13.9 7.5 0.9 41 5.6 W 24 39 13 21 1016.8 1016.7 0.0
01/07:47am 13.7 6.7 2.0 45 5.1 W 28 46 15 25 1016.3 1016.2 0.0
01/07:30am 13.4 6.4 -0.3 39 5.7 W 26 39 14 21 1015.8 1015.7 0.0
01/07:00am 13.4 6.5 0.4 41 5.5 W 26 43 14 23 1015.5 1015.4 0.0
01/06:30am 13.7 6.8 0.0 39 5.7 W 26 41 14 22 1014.7 1014.6 0.0
01/06:00am 13.7 7.6 0.4 40 5.6 W 22 35 12 19 1014.2 1014.1 0.0
01/05:30am 13.9 7.5 1.2 42 5.5 W 24 39 13 21 1013.7 1013.6 0.0
01/05:00am 13.7 8.6 4.3 53 4.3 W 20 30 11 16 1013.1 1013.0 0.0
01/04:30am 12.1 10.7 9.5 84 1.3 NW 7 11 4 6 1012.7 1012.6 0.0
01/04:00am 12.7 11.5 9.7 82 1.5 SW 6 9 3 5 1012.1 1012.0 0.0
01/03:30am 12.7 11.3 9.7 82 1.5 SSE 7 9 4 5 1011.4 1011.3 0.0
01/03:00am 12.5 10.2 9.1 80 1.7 S 11 17 6 9 1011.5 1011.4 0.0
01/02:30am 12.6 8.8 9.1 79 1.8 S 19 30 10 16 1011.5 1011.4 0.0
01/02:00am 13.1 7.4 9.7 80 1.7 SSE 30 44 16 24 1010.8 1010.7 0.0
01/01:48am 13.2 7.0 9.3 77 2.0 SSE 32 50 17 27 1010.6 1010.5 0.0
01/01:30am 13.9 9.0 10.1 78 2.0 S 26 41 14 22 1010.4 1010.3 0.0
01/01:07am 15.3 10.5 11.7 79 2.0 SSE 28 48 15 26 1009.3 1009.2 0.0
01/01:00am 15.9 10.6 11.3 74 2.5 SSE 30 39 16 21 1008.6 1008.5 0.0
01/12:55am 17.4 13.5 10.8 65 3.6 WSW 22 41 12 22 1009.4 1009.3 0.0
01/12:30am 22.6 18.8 3.7 29 9.2 SW 13 24 7 13 1007.7 1007.6 0.0
01/12:00am 23.4 20.5 2.8 26 9.9 W 7 11 4 6 1007.1 1007.0 0.0
 
Date/Time
EST
Temp
°C
App
Temp
°C
Dew
Point
Rel
Hum
%
Delta-T
°C
Wind Press
QNH
hPa
Press
MSL
hPa
Rain
since 9 am
mm
Dir
 
Spd
km/h
Gust
km/h
Spd
kts
Gust
kts
30/11:30pm 23.8 20.1 2.6 25 10.2 WNW 11 20 6 11 1006.6 1006.5 0.0
30/11:00pm 24.0 19.7 1.0 22 10.8 WNW 13 20 7 11 1006.6 1006.5 0.0
30/10:30pm 23.5 19.6 3.4 27 9.8 WNW 13 17 7 9 1006.6 1006.5 0.0
30/10:00pm 22.8 19.0 3.9 29 9.3 NNW 13 22 7 12 1006.6 1006.5 0.0
30/09:30pm 22.7 19.5 5.2 32 8.8 NNW 11 15 6 8 1007.0 1006.9 0.0
30/09:00pm 22.6 20.1 6.4 35 8.3 NW 9 13 5 7 1007.2 1007.1 0.0
30/08:30pm 24.0 21.4 6.3 32 9.1 WNW 9 11 5 6 1007.3 1007.2 0.0
30/08:00pm 24.4 21.5 6.6 32 9.3 WNW 11 20 6 11 1007.2 1007.1 0.0
30/07:30pm 25.4 22.1 6.6 30 9.8 W 13 20 7 11 1007.0 1006.9 0.0
30/07:00pm 26.0 23.6 7.1 30 10.0 WNW 9 13 5 7 1006.5 1006.4 0.0
30/06:30pm 26.2 21.7 6.8 29 10.2 NW 20 32 11 17 1006.0 1005.9 0.0
30/06:00pm 26.4 23.1 7.9 31 10.0 NW 15 24 8 13 1005.7 1005.6 0.0
30/05:30pm 27.2 23.4 7.6 29 10.5 NW 17 26 9 14 1005.5 1005.4 0.0
30/05:00pm 27.8 23.8 8.1 29 10.7 NW 19 28 10 15 1005.6 1005.5 0.0
30/04:30pm 28.5 24.6 8.7 29 10.9 NW 19 28 10 15 1005.8 1005.7 0.0
30/04:00pm 28.9 24.3 8.0 27 11.4 NW 22 41 12 22 1006.1 1006.0 0.0
30/03:30pm 29.5 23.4 6.8 24 12.2 WNW 28 43 15 23 1006.1 1006.0 0.0
30/03:00pm 29.5 23.9 5.6 22 12.6 WNW 24 35 13 19 1006.3 1006.2 0.0
30/02:30pm 29.8 23.8 5.1 21 12.9 WNW 26 44 14 24 1006.4 1006.3 0.0
30/02:02pm 30.2 23.7 4.8 20 13.2 WNW 28 46 15 25 1006.6 1006.5 0.0
30/02:00pm 30.1 23.8 4.0 19 13.4 WNW 26 44 14 24 1006.6 1006.5 0.0
30/01:30pm 30.0 23.8 6.0 22 12.7 WNW 28 43 15 23 1007.0 1006.9 0.0
30/01:00pm 29.8 23.5 5.8 22 12.7 WNW 28 43 15 23 1007.5 1007.4 0.0
30/12:30pm 29.5 22.8 7.4 25 12.0 NW 32 50 17 27 1008.2 1008.1 0.0
30/12:05pm 29.0 23.0 7.0 25 11.8 NW 28 54 15 29 1008.5 1008.4 0.0
30/12:00pm 29.1 23.0 6.5 24 12.1 WNW 28 39 15 21 1008.6 1008.5 0.0
30/11:30am 28.9 24.3 8.0 27 11.4 NNW 22 30 12 16 1009.3 1009.2 0.0
30/11:00am 28.2 24.1 8.5 29 10.8 N 20 28 11 15 1009.9 1009.8 0.0
30/10:30am 28.3 24.3 9.1 30 10.6 N 20 30 11 16 1010.6 1010.5 0.0
30/10:00am 27.3 23.5 7.7 29 10.6 N 17 30 9 16 1011.2 1011.0 0.0
30/09:30am 26.5 22.7 8.9 33 9.6 NNW 19 28 10 15 1011.6 1011.5 0.0
30/09:00am 25.2 21.7 8.7 35 8.9 NNW 17 33 9 18 1011.9 1011.8 0.0
30/08:30am 23.8 20.7 9.0 39 8.0 NNW 15 22 8 12 1012.0 1011.9 0.0
30/08:00am 22.2 19.8 8.7 42 7.2 N 11 15 6 8 1012.1 1012.0 0.0
30/07:30am 20.6 18.0 9.2 48 6.1 N 13 17 7 9 1012.1 1012.0 0.0
30/07:00am 19.8 17.4 8.5 48 5.9 N 11 13 6 7 1012.2 1012.1 0.0
30/06:30am 17.7 15.2 9.8 60 4.2 N 13 17 7 9 1012.2 1012.1 0.0
30/06:00am 16.3 14.3 11.5 73 2.6 N 13 17 7 9 1012.1 1012.0 0.0
30/05:30am 15.5 13.7 13.3 87 1.2 N 15 20 8 11 1011.8 1011.7 0.0
30/05:00am 15.5 14.1 14.4 93 0.6 N 15 20 8 11 1011.7 1011.6 0.0
30/04:30am 15.0 13.4 13.9 93 0.6 N 15 20 8 11 1011.6 1011.5 0.0
30/04:00am 14.3 12.4 12.9 91 0.8 NNE 15 17 8 9 1011.7 1011.6 0.0
30/03:30am 13.7 11.5 12.1 90 0.9 NNE 15 17 8 9 1011.9 1011.8 0.0
30/03:00am 13.1 11.3 12.2 94 0.5 N 13 13 7 7 1012.3 1012.2 0.0
30/02:30am 13.4 11.7 12.3 93 0.6 N 13 15 7 8 1012.6 1012.5 0.0
30/02:00am 13.4 11.6 12.0 91 0.8 N 13 15 7 8 1012.8 1012.7 0.0
30/01:30am 13.9 13.4 12.6 92 0.7 N 7 9 4 5 1013.1 1013.0 0.0
30/01:00am 13.5 12.8 11.9 90 0.9 N 7 7 4 4 1013.5 1013.4 0.0
30/12:30am 13.7 14.2 11.7 88 1.1 CALM 0 0 0 0 1013.8 1013.7 0.0
30/12:00am 14.4 13.8 11.7 84 1.5 WSW 6 6 3 3 1014.1 1014.0 0.0
 
Date/Time
EST
Temp
°C
App
Temp
°C
Dew
Point
Rel
Hum
%
Delta-T
°C
Wind Press
QNH
hPa
Press
MSL
hPa
Rain
since 9 am
mm
Dir
 
Spd
km/h
Gust
km/h
Spd
kts
Gust
kts
29/11:30pm 15.4 15.5 12.7 84 1.5 WSW 4 7 2 4 1014.3 1014.2 0.0
29/11:00pm 14.5 15.2 12.2 86 1.3 CALM 0 4 0 2 1014.7 1014.6 0.0
29/10:30pm 15.0 14.1 12.7 86 1.3 SW 9 11 5 6 1014.8 1014.7 0.0
29/10:00pm 15.2 14.0 12.7 85 1.4 SW 11 15 6 8 1015.0 1014.9 0.0
29/09:30pm 15.5 14.6 12.6 83 1.6 WSW 9 11 5 6 1015.2 1015.1 0.0
29/09:00pm 15.8 14.8 12.4 80 1.9 SW 9 11 5 6 1015.5 1015.4 0.0
29/08:30pm 16.3 15.2 11.9 75 2.4 WSW 9 11 5 6 1015.6 1015.5 0.0
29/08:00pm 16.3 15.2 12.1 76 2.3 SW 9 11 5 6 1015.7 1015.6 0.0
29/07:30pm 16.5 15.9 12.3 76 2.3 SW 7 11 4 6 1015.7 1015.6 0.0
29/07:00pm 16.8 16.0 12.9 78 2.2 SW 9 15 5 8 1015.4 1015.3 0.0
29/06:30pm 17.1 15.1 12.6 75 2.5 SSW 15 22 8 12 1014.9 1014.8 0.0
29/06:00pm 17.2 15.2 12.7 75 2.5 SSW 15 26 8 14 1014.8 1014.7 0.0
29/05:30pm 17.5 15.1 12.6 73 2.7 SSW 17 26 9 14 1014.4 1014.3 0.0
29/05:00pm 18.0 15.4 13.1 73 2.8 S 19 30 10 16 1013.8 1013.7 0.0
29/04:30pm 18.3 16.1 13.4 73 2.8 S 17 26 9 14 1013.3 1013.2 0.0
29/04:00pm 18.7 15.6 14.4 76 2.5 S 24 33 13 18 1013.0 1012.9 0.0
29/03:30pm 19.4 16.5 15.1 76 2.5 SSE 24 32 13 17 1012.1 1012.0 0.0
29/03:00pm 22.1 20.6 14.2 61 4.6 SSE 15 20 8 11 1011.3 1011.1 0.0
29/02:30pm 24.7 21.5 13.0 48 6.8 WNW 22 32 12 17 1010.7 1010.6 0.0
29/02:00pm 28.3 23.4 7.0 26 11.4 WNW 22 32 12 17 1010.4 1010.3 0.0
29/01:30pm 28.4 24.0 6.5 25 11.6 WNW 19 28 10 15 1010.9 1010.8 0.0
29/01:00pm 27.8 23.4 7.6 28 10.9 WNW 20 32 11 17 1011.3 1011.1 0.0
29/12:30pm 27.8 22.3 6.0 25 11.4 W 24 33 13 18 1011.4 1011.3 0.0
29/12:00pm 27.9 23.2 6.1 25 11.5 WNW 20 30 11 16 1012.0 1011.9 0.0
29/11:30am 26.8 22.8 6.8 28 10.6 NW 17 26 9 14 1012.3 1012.2 0.0
29/11:00am 27.0 24.1 8.0 30 10.3 NW 13 24 7 13 1012.9 1012.8 0.0
29/10:30am 25.7 21.2 6.8 30 9.9 WNW 20 30 11 16 1012.9 1012.8 0.0
29/10:00am 24.8 20.5 7.9 34 9.0 NW 20 26 11 14 1013.2 1013.1 0.0
29/09:30am 25.0 22.0 7.6 33 9.2 NNW 13 20 7 11 1013.2 1013.1 0.0
29/09:00am 23.9 20.8 7.1 34 8.8 NW 13 22 7 12 1013.4 1013.3 0.0
29/08:30am 23.0 20.2 7.1 36 8.3 NNW 11 22 6 12 1013.6 1013.5 0.0
29/08:00am 22.1 19.3 7.1 38 7.7 N 11 17 6 9 1013.5 1013.4 0.0
29/07:30am 20.8 17.3 7.4 42 6.9 NNW 15 22 8 12 1013.3 1013.2 0.0
29/07:00am 19.9 17.3 7.9 46 6.2 ENE 11 15 6 8 1013.0 1012.9 0.0
29/06:30am 19.8 16.4 5.8 40 7.0 N 13 20 7 11 1012.3 1012.2 0.0
29/06:00am 19.5 15.7 5.9 41 6.8 NNW 15 20 8 11 1012.0 1011.9 0.0
29/05:30am 19.4 16.1 6.2 42 6.6 N 13 20 7 11 1011.9 1011.8 0.0
29/05:00am 19.3 16.5 6.8 44 6.3 N 11 17 6 9 1011.7 1011.6 0.0
29/04:30am 17.7 14.8 9.6 59 4.3 N 15 20 8 11 1011.3 1011.1 0.0
29/04:00am 16.3 14.5 11.0 71 2.9 N 11 15 6 8 1011.3 1011.1 0.0
29/03:30am 17.0 14.9 11.1 68 3.2 N 13 17 7 9 1011.5 1011.4 0.0
29/03:00am 17.5 15.3 10.9 65 3.6 N 13 17 7 9 1011.6 1011.5 0.0
29/02:30am 17.2 15.1 11.2 68 3.3 N 13 20 7 11 1011.7 1011.6 0.0
29/02:00am 17.0 14.2 11.5 70 3.0 N 17 24 9 13 1012.2 1012.1 0.0
29/01:30am 17.0 15.1 11.9 72 2.8 N 13 20 7 11 1012.8 1012.7 0.0
29/01:00am 16.9 15.2 12.4 75 2.5 N 13 17 7 9 1013.3 1013.2 0.0
29/12:30am 17.1 15.0 12.4 74 2.6 N 15 22 8 12 1013.4 1013.3 0.0
29/12:00am 17.3 14.4 12.8 75 2.5 N 20 28 11 15 1013.5 1013.4 0.0
 
Date/Time
EST
Temp
°C
App
Temp
°C
Dew
Point
Rel
Hum
%
Delta-T
°C
Wind Press
QNH
hPa
Press
MSL
hPa
Rain
since 9 am
mm
Dir
 
Spd
km/h
Gust
km/h
Spd
kts
Gust
kts
28/11:30pm 17.3 13.9 12.6 74 2.6 N 22 30 12 16 1013.9 1013.8 0.0
28/11:00pm 17.2 13.9 12.9 76 2.4 N 22 30 12 16 1013.8 1013.7 0.0
28/10:30pm 16.9 14.2 13.6 81 1.9 N 20 30 11 16 1014.0 1013.9 0.0
28/10:00pm 16.8 14.2 13.7 82 1.8 N 20 28 11 15 1014.2 1014.1 0.0
28/09:30pm 17.0 14.9 13.7 81 1.9 N 17 24 9 13 1014.9 1014.8 0.0
28/09:00pm 17.1 14.6 14.0 82 1.8 N 20 32 11 17 1015.3 1015.2 0.0
28/08:30pm 17.2 13.5 13.9 81 1.9 N 26 39 14 21 1015.4 1015.3 0.0
28/08:00pm 17.4 13.8 14.1 81 1.9 N 26 39 14 21 1015.3 1015.2 0.0
28/07:30pm 17.5 13.4 13.8 79 2.1 N 28 39 15 21 1015.0 1014.9 0.0
28/07:00pm 17.6 13.0 13.5 77 2.3 N 30 48 16 26 1014.5 1014.4 0.0
28/06:30pm 17.5 12.9 13.4 77 2.3 NNE 30 44 16 24 1014.4 1014.3 0.0
28/06:00pm 17.8 13.1 13.3 75 2.5 NNE 30 48 16 26 1014.2 1014.1 0.0
28/05:47pm 18.0 13.7 13.3 74 2.7 N 28 46 15 25 1014.1 1014.0 0.0
28/05:30pm 18.2 13.9 13.3 73 2.8 NNE 28 41 15 22 1014.1 1014.0 0.0
28/05:01pm 18.8 14.5 13.2 70 3.2 NNE 28 46 15 25 1014.1 1014.0 0.0
28/05:00pm 18.8 14.1 13.2 70 3.2 NNE 30 46 16 25 1014.1 1014.0 0.0
28/04:54pm 19.0 14.0 13.4 70 3.2 NNE 32 50 17 27 1014.2 1014.1 0.0
28/04:30pm 19.6 14.7 13.8 69 3.3 NNE 32 44 17 24 1014.2 1014.1 0.0
28/04:01pm 19.8 14.8 13.3 66 3.7 NNE 32 50 17 27 1014.4 1014.3 0.0
28/04:00pm 20.0 15.0 13.5 66 3.7 NNE 32 46 17 25 1014.5 1014.4 0.0
28/03:54pm 19.9 15.7 13.4 66 3.7 NNE 28 46 15 25 1014.4 1014.3 0.0

Other Formats:

Comma delimited format used in spreadsheet applications
http://www.bom.gov.au/fwo/IDN60801/IDN60801.95940.axf

JavaScript Object Notation format (JSON) in row-major order
http://www.bom.gov.au/fwo/IDN60801/IDN60801.95940.json